sensor_id;sensor_type;location;lat;lon;timestamp;pressure;altitude;pressure_sealevel;temperature
23208;BMP180;11773;52.570;13.052;2023-09-18T00:00:19;100998.00;;;24.70
23208;BMP180;11773;52.570;13.052;2023-09-18T00:02:49;100998.00;;;24.70
23208;BMP180;11773;52.570;13.052;2023-09-18T00:05:19;101008.00;;;24.70
23208;BMP180;11773;52.570;13.052;2023-09-18T00:07:49;100991.00;;;24.70
23208;BMP180;11773;52.570;13.052;2023-09-18T00:10:18;101002.00;;;24.70
23208;BMP180;11773;52.570;13.052;2023-09-18T00:12:48;101001.00;;;24.70
23208;BMP180;11773;52.570;13.052;2023-09-18T00:15:18;100993.00;;;24.60
23208;BMP180;11773;52.570;13.052;2023-09-18T00:17:47;101002.00;;;24.60
23208;BMP180;11773;52.570;13.052;2023-09-18T00:20:17;100987.00;;;24.50
23208;BMP180;11773;52.570;13.052;2023-09-18T00:22:47;100984.00;;;24.50
23208;BMP180;11773;52.570;13.052;2023-09-18T00:25:16;100979.00;;;24.40
23208;BMP180;11773;52.570;13.052;2023-09-18T00:27:46;100978.00;;;24.40
23208;BMP180;11773;52.570;13.052;2023-09-18T00:30:16;100991.00;;;24.40
23208;BMP180;11773;52.570;13.052;2023-09-18T00:32:45;100989.00;;;24.40
23208;BMP180;11773;52.570;13.052;2023-09-18T00:35:16;100980.00;;;24.40
23208;BMP180;11773;52.570;13.052;2023-09-18T00:37:45;100981.00;;;24.40
23208;BMP180;11773;52.570;13.052;2023-09-18T00:40:15;100988.00;;;24.40
23208;BMP180;11773;52.570;13.052;2023-09-18T00:42:45;100963.00;;;24.40
23208;BMP180;11773;52.570;13.052;2023-09-18T00:45:15;100963.00;;;24.40
23208;BMP180;11773;52.570;13.052;2023-09-18T00:47:45;100965.00;;;24.40
23208;BMP180;11773;52.570;13.052;2023-09-18T00:50:15;100970.00;;;24.40
23208;BMP180;11773;52.570;13.052;2023-09-18T00:52:45;100969.00;;;24.40
23208;BMP180;11773;52.570;13.052;2023-09-18T00:55:14;100968.00;;;24.30
23208;BMP180;11773;52.570;13.052;2023-09-18T00:57:46;100969.00;;;24.30
23208;BMP180;11773;52.570;13.052;2023-09-18T01:00:16;100971.00;;;24.30
23208;BMP180;11773;52.570;13.052;2023-09-18T01:02:46;100962.00;;;24.30
23208;BMP180;11773;52.570;13.052;2023-09-18T01:05:16;100971.00;;;24.30
23208;BMP180;11773;52.570;13.052;2023-09-18T01:07:46;100954.00;;;24.30
23208;BMP180;11773;52.570;13.052;2023-09-18T01:10:16;100953.00;;;24.30
23208;BMP180;11773;52.570;13.052;2023-09-18T01:13:04;100963.00;;;24.30
23208;BMP180;11773;52.570;13.052;2023-09-18T01:15:39;100950.00;;;24.20
23208;BMP180;11773;52.570;13.052;2023-09-18T01:18:10;100949.00;;;24.20
23208;BMP180;11773;52.570;13.052;2023-09-18T01:20:40;100954.00;;;24.20
23208;BMP180;11773;52.570;13.052;2023-09-18T01:23:10;100965.00;;;24.20
23208;BMP180;11773;52.570;13.052;2023-09-18T01:25:39;100951.00;;;24.10
23208;BMP180;11773;52.570;13.052;2023-09-18T01:28:09;100958.00;;;24.10
23208;BMP180;11773;52.570;13.052;2023-09-18T01:30:39;100947.00;;;24.10
23208;BMP180;11773;52.570;13.052;2023-09-18T01:33:09;100951.00;;;24.10
23208;BMP180;11773;52.570;13.052;2023-09-18T01:35:40;100956.00;;;24.10
23208;BMP180;11773;52.570;13.052;2023-09-18T01:38:11;100941.00;;;24.00
23208;BMP180;11773;52.570;13.052;2023-09-18T01:40:42;100955.00;;;24.00
23208;BMP180;11773;52.570;13.052;2023-09-18T01:43:12;100951.00;;;24.00
23208;BMP180;11773;52.570;13.052;2023-09-18T01:45:43;100945.00;;;24.00
23208;BMP180;11773;52.570;13.052;2023-09-18T01:48:13;100950.00;;;24.00
23208;BMP180;11773;52.570;13.052;2023-09-18T01:50:42;100930.00;;;23.90
23208;BMP180;11773;52.570;13.052;2023-09-18T01:53:12;100924.00;;;23.90
23208;BMP180;11773;52.570;13.052;2023-09-18T01:55:42;100914.00;;;23.90
23208;BMP180;11773;52.570;13.052;2023-09-18T01:58:12;100916.00;;;23.90
23208;BMP180;11773;52.570;13.052;2023-09-18T02:00:44;100897.00;;;23.80
23208;BMP180;11773;52.570;13.052;2023-09-18T02:03:14;100892.00;;;23.80
23208;BMP180;11773;52.570;13.052;2023-09-18T02:05:47;100903.00;;;23.70
23208;BMP180;11773;52.570;13.052;2023-09-18T02:08:17;100883.00;;;23.70
23208;BMP180;11773;52.570;13.052;2023-09-18T02:10:48;100894.00;;;23.70
23208;BMP180;11773;52.570;13.052;2023-09-18T02:13:17;100889.00;;;23.70
23208;BMP180;11773;52.570;13.052;2023-09-18T02:15:47;100879.00;;;23.60
23208;BMP180;11773;52.570;13.052;2023-09-18T02:18:16;100878.00;;;23.60
23208;BMP180;11773;52.570;13.052;2023-09-18T02:20:47;100867.00;;;23.60
23208;BMP180;11773;52.570;13.052;2023-09-18T02:23:17;100867.00;;;23.60
23208;BMP180;11773;52.570;13.052;2023-09-18T02:25:59;100878.00;;;23.60
23208;BMP180;11773;52.570;13.052;2023-09-18T02:28:20;100890.00;;;23.60
23208;BMP180;11773;52.570;13.052;2023-09-18T02:30:50;100867.00;;;23.60
23208;BMP180;11773;52.570;13.052;2023-09-18T02:33:20;100868.00;;;23.60
23208;BMP180;11773;52.570;13.052;2023-09-18T02:35:50;100861.00;;;23.50
23208;BMP180;11773;52.570;13.052;2023-09-18T02:38:19;100848.00;;;23.50
23208;BMP180;11773;52.570;13.052;2023-09-18T02:40:49;100851.00;;;23.50
23208;BMP180;11773;52.570;13.052;2023-09-18T02:43:18;100863.00;;;23.50
23208;BMP180;11773;52.570;13.052;2023-09-18T02:45:48;100861.00;;;23.50
23208;BMP180;11773;52.570;13.052;2023-09-18T02:48:19;100837.00;;;23.50
23208;BMP180;11773;52.570;13.052;2023-09-18T02:50:49;100845.00;;;23.40
23208;BMP180;11773;52.570;13.052;2023-09-18T02:53:23;100861.00;;;23.40
23208;BMP180;11773;52.570;13.052;2023-09-18T02:55:56;100843.00;;;23.40
23208;BMP180;11773;52.570;13.052;2023-09-18T02:58:27;100827.00;;;23.40
23208;BMP180;11773;52.570;13.052;2023-09-18T03:00:58;100837.00;;;23.40
23208;BMP180;11773;52.570;13.052;2023-09-18T03:03:28;100829.00;;;23.40
23208;BMP180;11773;52.570;13.052;2023-09-18T03:06:04;100826.00;;;23.40
23208;BMP180;11773;52.570;13.052;2023-09-18T03:08:35;100828.00;;;23.40
23208;BMP180;11773;52.570;13.052;2023-09-18T03:11:12;100812.00;;;23.40
23208;BMP180;11773;52.570;13.052;2023-09-18T03:13:46;100821.00;;;23.30
23208;BMP180;11773;52.570;13.052;2023-09-18T03:16:16;100809.00;;;23.30
23208;BMP180;11773;52.570;13.052;2023-09-18T03:18:46;100809.00;;;23.30
23208;BMP180;11773;52.570;13.052;2023-09-18T03:21:16;100818.00;;;23.30
23208;BMP180;11773;52.570;13.052;2023-09-18T03:23:45;100818.00;;;23.30
23208;BMP180;11773;52.570;13.052;2023-09-18T03:26:15;100811.00;;;23.30
23208;BMP180;11773;52.570;13.052;2023-09-18T03:28:44;100810.00;;;23.30
23208;BMP180;11773;52.570;13.052;2023-09-18T03:31:14;100815.00;;;23.30
23208;BMP180;11773;52.570;13.052;2023-09-18T03:33:44;100812.00;;;23.30
23208;BMP180;11773;52.570;13.052;2023-09-18T03:36:14;100816.00;;;23.30
23208;BMP180;11773;52.570;13.052;2023-09-18T03:38:44;100805.00;;;23.30
23208;BMP180;11773;52.570;13.052;2023-09-18T03:41:14;100801.00;;;23.30
23208;BMP180;11773;52.570;13.052;2023-09-18T03:43:43;100801.00;;;23.30
23208;BMP180;11773;52.570;13.052;2023-09-18T03:46:13;100801.00;;;23.30
23208;BMP180;11773;52.570;13.052;2023-09-18T03:48:43;100803.00;;;23.30
23208;BMP180;11773;52.570;13.052;2023-09-18T03:51:13;100802.00;;;23.30
23208;BMP180;11773;52.570;13.052;2023-09-18T03:53:44;100804.00;;;23.30
23208;BMP180;11773;52.570;13.052;2023-09-18T03:56:16;100802.00;;;23.20
23208;BMP180;11773;52.570;13.052;2023-09-18T03:58:46;100804.00;;;23.20
23208;BMP180;11773;52.570;13.052;2023-09-18T04:01:17;100798.00;;;23.20
23208;BMP180;11773;52.570;13.052;2023-09-18T04:03:47;100791.00;;;23.20
23208;BMP180;11773;52.570;13.052;2023-09-18T04:06:17;100795.00;;;23.20
23208;BMP180;11773;52.570;13.052;2023-09-18T04:08:48;100778.00;;;23.20
23208;BMP180;11773;52.570;13.052;2023-09-18T04:11:18;100782.00;;;23.20
23208;BMP180;11773;52.570;13.052;2023-09-18T04:13:49;100769.00;;;23.10
23208;BMP180;11773;52.570;13.052;2023-09-18T04:16:19;100787.00;;;23.10
23208;BMP180;11773;52.570;13.052;2023-09-18T04:18:49;100778.00;;;23.10
23208;BMP180;11773;52.570;13.052;2023-09-18T04:21:19;100779.00;;;23.10
23208;BMP180;11773;52.570;13.052;2023-09-18T04:23:50;100777.00;;;23.10
23208;BMP180;11773;52.570;13.052;2023-09-18T04:26:21;100753.00;;;23.10
23208;BMP180;11773;52.570;13.052;2023-09-18T04:28:52;100771.00;;;23.10
23208;BMP180;11773;52.570;13.052;2023-09-18T04:31:22;100756.00;;;23.10
23208;BMP180;11773;52.570;13.052;2023-09-18T04:33:51;100758.00;;;23.10
23208;BMP180;11773;52.570;13.052;2023-09-18T04:36:21;100750.00;;;23.10
23208;BMP180;11773;52.570;13.052;2023-09-18T04:38:51;100755.00;;;23.10
23208;BMP180;11773;52.570;13.052;2023-09-18T04:41:21;100746.00;;;23.10
23208;BMP180;11773;52.570;13.052;2023-09-18T04:43:51;100755.00;;;23.10
23208;BMP180;11773;52.570;13.052;2023-09-18T04:46:20;100756.00;;;23.10
23208;BMP180;11773;52.570;13.052;2023-09-18T04:48:50;100757.00;;;23.10
23208;BMP180;11773;52.570;13.052;2023-09-18T04:51:20;100753.00;;;23.10
23208;BMP180;11773;52.570;13.052;2023-09-18T04:53:49;100756.00;;;23.10
23208;BMP180;11773;52.570;13.052;2023-09-18T04:56:20;100757.00;;;23.10
23208;BMP180;11773;52.570;13.052;2023-09-18T04:58:50;100755.00;;;23.10
23208;BMP180;11773;52.570;13.052;2023-09-18T05:01:20;100741.00;;;23.10
23208;BMP180;11773;52.570;13.052;2023-09-18T05:03:49;100751.00;;;23.10
23208;BMP180;11773;52.570;13.052;2023-09-18T05:06:20;100751.00;;;23.10
23208;BMP180;11773;52.570;13.052;2023-09-18T05:08:49;100740.00;;;23.10
23208;BMP180;11773;52.570;13.052;2023-09-18T05:11:20;100736.00;;;23.10
23208;BMP180;11773;52.570;13.052;2023-09-18T05:13:50;100741.00;;;23.10
23208;BMP180;11773;52.570;13.052;2023-09-18T05:16:21;100725.00;;;23.10
23208;BMP180;11773;52.570;13.052;2023-09-18T05:18:51;100730.00;;;23.00
23208;BMP180;11773;52.570;13.052;2023-09-18T05:21:21;100727.00;;;23.00
23208;BMP180;11773;52.570;13.052;2023-09-18T05:23:52;100731.00;;;23.00
23208;BMP180;11773;52.570;13.052;2023-09-18T05:26:22;100721.00;;;23.00
23208;BMP180;11773;52.570;13.052;2023-09-18T05:28:54;100728.00;;;23.00
23208;BMP180;11773;52.570;13.052;2023-09-18T05:31:23;100722.00;;;23.00
23208;BMP180;11773;52.570;13.052;2023-09-18T05:33:53;100730.00;;;23.00
23208;BMP180;11773;52.570;13.052;2023-09-18T05:36:22;100721.00;;;23.00
23208;BMP180;11773;52.570;13.052;2023-09-18T05:38:52;100710.00;;;23.00
23208;BMP180;11773;52.570;13.052;2023-09-18T05:41:22;100706.00;;;23.00
23208;BMP180;11773;52.570;13.052;2023-09-18T05:43:53;100697.00;;;23.00
23208;BMP180;11773;52.570;13.052;2023-09-18T05:46:23;100707.00;;;23.00
23208;BMP180;11773;52.570;13.052;2023-09-18T05:48:53;100705.00;;;23.10
23208;BMP180;11773;52.570;13.052;2023-09-18T05:51:24;100696.00;;;23.10
23208;BMP180;11773;52.570;13.052;2023-09-18T05:53:54;100703.00;;;23.10
23208;BMP180;11773;52.570;13.052;2023-09-18T05:56:23;100706.00;;;23.20
23208;BMP180;11773;52.570;13.052;2023-09-18T05:58:53;100707.00;;;23.20
23208;BMP180;11773;52.570;13.052;2023-09-18T06:01:23;100687.00;;;23.20
23208;BMP180;11773;52.570;13.052;2023-09-18T06:03:54;100684.00;;;23.20
23208;BMP180;11773;52.570;13.052;2023-09-18T06:06:24;100688.00;;;23.30
23208;BMP180;11773;52.570;13.052;2023-09-18T06:08:53;100684.00;;;23.30
23208;BMP180;11773;52.570;13.052;2023-09-18T06:11:23;100694.00;;;23.40
23208;BMP180;11773;52.570;13.052;2023-09-18T06:13:53;100690.00;;;23.40
23208;BMP180;11773;52.570;13.052;2023-09-18T06:16:23;100682.00;;;23.50
23208;BMP180;11773;52.570;13.052;2023-09-18T06:18:52;100671.00;;;23.60
23208;BMP180;11773;52.570;13.052;2023-09-18T06:21:24;100672.00;;;23.70
23208;BMP180;11773;52.570;13.052;2023-09-18T06:23:53;100658.00;;;23.80
23208;BMP180;11773;52.570;13.052;2023-09-18T06:26:24;100662.00;;;23.90
23208;BMP180;11773;52.570;13.052;2023-09-18T06:28:53;100664.00;;;24.00
23208;BMP180;11773;52.570;13.052;2023-09-18T06:31:24;100658.00;;;24.00
23208;BMP180;11773;52.570;13.052;2023-09-18T06:33:55;100655.00;;;24.10
23208;BMP180;11773;52.570;13.052;2023-09-18T06:36:24;100646.00;;;24.30
23208;BMP180;11773;52.570;13.052;2023-09-18T06:38:54;100655.00;;;24.40
23208;BMP180;11773;52.570;13.052;2023-09-18T06:41:24;100653.00;;;24.60
23208;BMP180;11773;52.570;13.052;2023-09-18T06:43:53;100651.00;;;24.70
23208;BMP180;11773;52.570;13.052;2023-09-18T06:46:23;100642.00;;;24.90
23208;BMP180;11773;52.570;13.052;2023-09-18T06:48:53;100647.00;;;25.10
23208;BMP180;11773;52.570;13.052;2023-09-18T06:51:23;100647.00;;;25.30
23208;BMP180;11773;52.570;13.052;2023-09-18T06:53:55;100632.00;;;25.50
23208;BMP180;11773;52.570;13.052;2023-09-18T06:56:25;100627.00;;;25.70
23208;BMP180;11773;52.570;13.052;2023-09-18T06:58:55;100624.00;;;25.90
23208;BMP180;11773;52.570;13.052;2023-09-18T07:01:25;100621.00;;;26.10
23208;BMP180;11773;52.570;13.052;2023-09-18T07:03:56;100603.00;;;26.20
23208;BMP180;11773;52.570;13.052;2023-09-18T07:06:27;100605.00;;;26.40
23208;BMP180;11773;52.570;13.052;2023-09-18T07:08:57;100619.00;;;26.50
23208;BMP180;11773;52.570;13.052;2023-09-18T07:11:27;100620.00;;;26.70
23208;BMP180;11773;52.570;13.052;2023-09-18T07:13:57;100610.00;;;26.90
23208;BMP180;11773;52.570;13.052;2023-09-18T07:16:27;100603.00;;;27.00
23208;BMP180;11773;52.570;13.052;2023-09-18T07:18:56;100609.00;;;27.20
23208;BMP180;11773;52.570;13.052;2023-09-18T07:21:26;100612.00;;;27.30
23208;BMP180;11773;52.570;13.052;2023-09-18T07:23:57;100602.00;;;27.40
23208;BMP180;11773;52.570;13.052;2023-09-18T07:26:26;100612.00;;;27.50
23208;BMP180;11773;52.570;13.052;2023-09-18T07:28:56;100592.00;;;27.60
23208;BMP180;11773;52.570;13.052;2023-09-18T07:31:27;100603.00;;;27.60
23208;BMP180;11773;52.570;13.052;2023-09-18T07:33:57;100607.00;;;27.70
23208;BMP180;11773;52.570;13.052;2023-09-18T07:36:27;100610.00;;;27.80
23208;BMP180;11773;52.570;13.052;2023-09-18T07:38:57;100587.00;;;27.80
23208;BMP180;11773;52.570;13.052;2023-09-18T07:41:27;100592.00;;;27.90
23208;BMP180;11773;52.570;13.052;2023-09-18T07:43:56;100586.00;;;27.90
23208;BMP180;11773;52.570;13.052;2023-09-18T07:46:29;100581.00;;;28.00
23208;BMP180;11773;52.570;13.052;2023-09-18T07:48:58;100590.00;;;28.00
23208;BMP180;11773;52.570;13.052;2023-09-18T07:51:28;100591.00;;;28.00
23208;BMP180;11773;52.570;13.052;2023-09-18T07:53:58;100595.00;;;28.00
23208;BMP180;11773;52.570;13.052;2023-09-18T07:56:28;100573.00;;;28.10
23208;BMP180;11773;52.570;13.052;2023-09-18T07:58:59;100571.00;;;28.10
23208;BMP180;11773;52.570;13.052;2023-09-18T08:01:29;100570.00;;;28.10
23208;BMP180;11773;52.570;13.052;2023-09-18T08:04:00;100561.00;;;28.10
23208;BMP180;11773;52.570;13.052;2023-09-18T08:06:30;100557.00;;;28.10
23208;BMP180;11773;52.570;13.052;2023-09-18T08:09:00;100559.00;;;28.10
23208;BMP180;11773;52.570;13.052;2023-09-18T08:11:30;100563.00;;;28.10
23208;BMP180;11773;52.570;13.052;2023-09-18T08:14:00;100561.00;;;28.10
23208;BMP180;11773;52.570;13.052;2023-09-18T08:16:29;100571.00;;;28.10
23208;BMP180;11773;52.570;13.052;2023-09-18T08:19:01;100562.00;;;28.10
23208;BMP180;11773;52.570;13.052;2023-09-18T08:21:32;100562.00;;;28.10
23208;BMP180;11773;52.570;13.052;2023-09-18T08:24:01;100554.00;;;28.20
23208;BMP180;11773;52.570;13.052;2023-09-18T08:26:31;100566.00;;;28.20
23208;BMP180;11773;52.570;13.052;2023-09-18T08:29:01;100562.00;;;28.20
23208;BMP180;11773;52.570;13.052;2023-09-18T08:31:31;100564.00;;;28.20
23208;BMP180;11773;52.570;13.052;2023-09-18T08:34:01;100553.00;;;28.20
23208;BMP180;11773;52.570;13.052;2023-09-18T08:36:30;100552.00;;;28.30
23208;BMP180;11773;52.570;13.052;2023-09-18T08:39:00;100547.00;;;28.20
23208;BMP180;11773;52.570;13.052;2023-09-18T08:41:32;100539.00;;;28.30
23208;BMP180;11773;52.570;13.052;2023-09-18T08:44:03;100548.00;;;28.30
23208;BMP180;11773;52.570;13.052;2023-09-18T08:46:35;100545.00;;;28.30
23208;BMP180;11773;52.570;13.052;2023-09-18T08:49:07;100544.00;;;28.30
23208;BMP180;11773;52.570;13.052;2023-09-18T08:51:39;100532.00;;;28.30
23208;BMP180;11773;52.570;13.052;2023-09-18T08:54:11;100530.00;;;28.40
23208;BMP180;11773;52.570;13.052;2023-09-18T08:56:40;100519.00;;;28.40
23208;BMP180;11773;52.570;13.052;2023-09-18T08:59:12;100505.00;;;28.50
23208;BMP180;11773;52.570;13.052;2023-09-18T09:01:42;100515.00;;;28.50
23208;BMP180;11773;52.570;13.052;2023-09-18T09:04:11;100512.00;;;28.50
23208;BMP180;11773;52.570;13.052;2023-09-18T09:06:41;100499.00;;;28.60
23208;BMP180;11773;52.570;13.052;2023-09-18T09:09:11;100498.00;;;28.60
23208;BMP180;11773;52.570;13.052;2023-09-18T09:11:50;100516.00;;;28.70
23208;BMP180;11773;52.570;13.052;2023-09-18T09:14:20;100514.00;;;28.70
23208;BMP180;11773;52.570;13.052;2023-09-18T09:16:59;100495.00;;;28.80
23208;BMP180;11773;52.570;13.052;2023-09-18T09:19:33;100493.00;;;28.80
23208;BMP180;11773;52.570;13.052;2023-09-18T09:22:05;100502.00;;;28.90
23208;BMP180;11773;52.570;13.052;2023-09-18T09:24:44;100511.00;;;28.90
23208;BMP180;11773;52.570;13.052;2023-09-18T09:27:14;100519.00;;;28.90
23208;BMP180;11773;52.570;13.052;2023-09-18T09:30:00;100503.00;;;29.00
23208;BMP180;11773;52.570;13.052;2023-09-18T09:32:33;100504.00;;;29.00
23208;BMP180;11773;52.570;13.052;2023-09-18T09:35:03;100504.00;;;29.10
23208;BMP180;11773;52.570;13.052;2023-09-18T09:37:34;100487.00;;;29.10
23208;BMP180;11773;52.570;13.052;2023-09-18T09:40:05;100481.00;;;29.20
23208;BMP180;11773;52.570;13.052;2023-09-18T09:42:41;100492.00;;;29.20
23208;BMP180;11773;52.570;13.052;2023-09-18T09:45:15;100480.00;;;29.20
23208;BMP180;11773;52.570;13.052;2023-09-18T09:47:45;100485.00;;;29.20
23208;BMP180;11773;52.570;13.052;2023-09-18T09:50:16;100477.00;;;29.30
23208;BMP180;11773;52.570;13.052;2023-09-18T09:52:49;100467.00;;;29.30
23208;BMP180;11773;52.570;13.052;2023-09-18T09:55:26;100459.00;;;29.30
23208;BMP180;11773;52.570;13.052;2023-09-18T09:57:56;100454.00;;;29.30
23208;BMP180;11773;52.570;13.052;2023-09-18T10:03:17;100463.00;;;29.40
23208;BMP180;11773;52.570;13.052;2023-09-18T10:05:50;100447.00;;;29.40
23208;BMP180;11773;52.570;13.052;2023-09-18T10:08:25;100433.00;;;29.40
23208;BMP180;11773;52.570;13.052;2023-09-18T10:11:01;100459.00;;;29.50
23208;BMP180;11773;52.570;13.052;2023-09-18T10:16:17;100471.00;;;29.60
23208;BMP180;11773;52.570;13.052;2023-09-18T10:19:27;100480.00;;;29.70
23208;BMP180;11773;52.570;13.052;2023-09-18T10:22:21;100481.00;;;29.70
23208;BMP180;11773;52.570;13.052;2023-09-18T10:24:54;100484.00;;;29.70
23208;BMP180;11773;52.570;13.052;2023-09-18T10:27:26;100500.00;;;29.80
23208;BMP180;11773;52.570;13.052;2023-09-18T10:29:58;100511.00;;;29.80
23208;BMP180;11773;52.570;13.052;2023-09-18T10:32:29;100503.00;;;29.90
23208;BMP180;11773;52.570;13.052;2023-09-18T10:35:01;100504.00;;;29.90
23208;BMP180;11773;52.570;13.052;2023-09-18T10:37:32;100503.00;;;30.00
23208;BMP180;11773;52.570;13.052;2023-09-18T10:40:02;100496.00;;;30.00
23208;BMP180;11773;52.570;13.052;2023-09-18T10:42:37;100493.00;;;30.00
23208;BMP180;11773;52.570;13.052;2023-09-18T10:45:11;100484.00;;;30.10
23208;BMP180;11773;52.570;13.052;2023-09-18T10:47:44;100477.00;;;30.10
23208;BMP180;11773;52.570;13.052;2023-09-18T10:50:26;100482.00;;;30.10
23208;BMP180;11773;52.570;13.052;2023-09-18T10:52:57;100470.00;;;30.10
23208;BMP180;11773;52.570;13.052;2023-09-18T10:55:27;100468.00;;;30.10
23208;BMP180;11773;52.570;13.052;2023-09-18T10:57:59;100483.00;;;30.10
23208;BMP180;11773;52.570;13.052;2023-09-18T11:00:31;100503.00;;;30.10
23208;BMP180;11773;52.570;13.052;2023-09-18T11:03:18;100497.00;;;30.10
23208;BMP180;11773;52.570;13.052;2023-09-18T11:06:01;100501.00;;;30.00
23208;BMP180;11773;52.570;13.052;2023-09-18T11:08:35;100502.00;;;30.10
23208;BMP180;11773;52.570;13.052;2023-09-18T11:11:10;100506.00;;;30.00
23208;BMP180;11773;52.570;13.052;2023-09-18T11:13:47;100498.00;;;30.00
23208;BMP180;11773;52.570;13.052;2023-09-18T11:19:08;100501.00;;;30.00
23208;BMP180;11773;52.570;13.052;2023-09-18T11:21:37;100483.00;;;30.00
23208;BMP180;11773;52.570;13.052;2023-09-18T11:24:21;100497.00;;;30.00
23208;BMP180;11773;52.570;13.052;2023-09-18T11:26:52;100491.00;;;30.00
23208;BMP180;11773;52.570;13.052;2023-09-18T11:29:23;100483.00;;;30.00
23208;BMP180;11773;52.570;13.052;2023-09-18T11:31:57;100483.00;;;30.00
23208;BMP180;11773;52.570;13.052;2023-09-18T11:34:30;100478.00;;;30.00
23208;BMP180;11773;52.570;13.052;2023-09-18T11:37:00;100463.00;;;30.00
23208;BMP180;11773;52.570;13.052;2023-09-18T11:39:37;100463.00;;;30.00
23208;BMP180;11773;52.570;13.052;2023-09-18T11:44:45;100470.00;;;29.90
23208;BMP180;11773;52.570;13.052;2023-09-18T11:47:23;100461.00;;;29.90
23208;BMP180;11773;52.570;13.052;2023-09-18T11:49:55;100472.00;;;29.90
23208;BMP180;11773;52.570;13.052;2023-09-18T11:52:30;100456.00;;;29.80
23208;BMP180;11773;52.570;13.052;2023-09-18T11:55:01;100462.00;;;29.80
23208;BMP180;11773;52.570;13.052;2023-09-18T11:57:36;100482.00;;;29.80
23208;BMP180;11773;52.570;13.052;2023-09-18T12:00:18;100492.00;;;29.80
23208;BMP180;11773;52.570;13.052;2023-09-18T12:02:40;100488.00;;;29.80
23208;BMP180;11773;52.570;13.052;2023-09-18T12:05:17;100477.00;;;29.90
23208;BMP180;11773;52.570;13.052;2023-09-18T12:07:48;100469.00;;;29.90
23208;BMP180;11773;52.570;13.052;2023-09-18T12:10:20;100456.00;;;29.90
23208;BMP180;11773;52.570;13.052;2023-09-18T12:12:51;100453.00;;;29.90
23208;BMP180;11773;52.570;13.052;2023-09-18T12:15:20;100468.00;;;29.90
23208;BMP180;11773;52.570;13.052;2023-09-18T12:17:55;100462.00;;;30.00
23208;BMP180;11773;52.570;13.052;2023-09-18T12:20:26;100444.00;;;30.00
23208;BMP180;11773;52.570;13.052;2023-09-18T12:22:56;100451.00;;;30.00
23208;BMP180;11773;52.570;13.052;2023-09-18T12:25:26;100460.00;;;30.00
23208;BMP180;11773;52.570;13.052;2023-09-18T12:27:56;100455.00;;;30.00
23208;BMP180;11773;52.570;13.052;2023-09-18T12:30:27;100459.00;;;30.10
23208;BMP180;11773;52.570;13.052;2023-09-18T12:33:00;100455.00;;;30.10
23208;BMP180;11773;52.570;13.052;2023-09-18T12:35:32;100454.00;;;30.10
23208;BMP180;11773;52.570;13.052;2023-09-18T12:38:02;100444.00;;;30.10
23208;BMP180;11773;52.570;13.052;2023-09-18T12:40:33;100460.00;;;30.10
23208;BMP180;11773;52.570;13.052;2023-09-18T12:43:03;100466.00;;;30.10
23208;BMP180;11773;52.570;13.052;2023-09-18T12:45:35;100465.00;;;30.10
23208;BMP180;11773;52.570;13.052;2023-09-18T12:48:07;100471.00;;;30.10
23208;BMP180;11773;52.570;13.052;2023-09-18T12:50:37;100462.00;;;30.10
23208;BMP180;11773;52.570;13.052;2023-09-18T12:53:14;100472.00;;;30.10
23208;BMP180;11773;52.570;13.052;2023-09-18T12:55:45;100469.00;;;30.10
23208;BMP180;11773;52.570;13.052;2023-09-18T12:58:22;100477.00;;;30.00
23208;BMP180;11773;52.570;13.052;2023-09-18T13:00:52;100474.00;;;30.00
23208;BMP180;11773;52.570;13.052;2023-09-18T13:03:22;100461.00;;;30.00
23208;BMP180;11773;52.570;13.052;2023-09-18T13:05:54;100444.00;;;30.00
23208;BMP180;11773;52.570;13.052;2023-09-18T13:08:24;100457.00;;;30.00
23208;BMP180;11773;52.570;13.052;2023-09-18T13:10:54;100470.00;;;29.90
23208;BMP180;11773;52.570;13.052;2023-09-18T13:13:24;100467.00;;;29.90
23208;BMP180;11773;52.570;13.052;2023-09-18T13:15:59;100450.00;;;29.90
23208;BMP180;11773;52.570;13.052;2023-09-18T13:18:29;100439.00;;;29.80
23208;BMP180;11773;52.570;13.052;2023-09-18T13:21:00;100430.00;;;29.80
23208;BMP180;11773;52.570;13.052;2023-09-18T13:23:32;100428.00;;;29.80
23208;BMP180;11773;52.570;13.052;2023-09-18T13:26:05;100444.00;;;29.70
23208;BMP180;11773;52.570;13.052;2023-09-18T13:28:36;100440.00;;;29.70
23208;BMP180;11773;52.570;13.052;2023-09-18T13:31:08;100424.00;;;29.70
23208;BMP180;11773;52.570;13.052;2023-09-18T13:33:41;100436.00;;;29.70
23208;BMP180;11773;52.570;13.052;2023-09-18T13:36:12;100417.00;;;29.60
23208;BMP180;11773;52.570;13.052;2023-09-18T13:38:41;100418.00;;;29.60
23208;BMP180;11773;52.570;13.052;2023-09-18T13:41:13;100412.00;;;29.60
23208;BMP180;11773;52.570;13.052;2023-09-18T13:43:42;100409.00;;;29.60
23208;BMP180;11773;52.570;13.052;2023-09-18T13:46:14;100421.00;;;29.50
23208;BMP180;11773;52.570;13.052;2023-09-18T13:48:43;100419.00;;;29.50
23208;BMP180;11773;52.570;13.052;2023-09-18T13:51:13;100417.00;;;29.50
23208;BMP180;11773;52.570;13.052;2023-09-18T13:53:43;100425.00;;;29.50
23208;BMP180;11773;52.570;13.052;2023-09-18T13:56:12;100414.00;;;29.40
23208;BMP180;11773;52.570;13.052;2023-09-18T13:58:42;100406.00;;;29.40
23208;BMP180;11773;52.570;13.052;2023-09-18T14:01:12;100402.00;;;29.40
23208;BMP180;11773;52.570;13.052;2023-09-18T14:03:43;100411.00;;;29.30
23208;BMP180;11773;52.570;13.052;2023-09-18T14:06:14;100409.00;;;29.30
23208;BMP180;11773;52.570;13.052;2023-09-18T14:08:43;100411.00;;;29.30
23208;BMP180;11773;52.570;13.052;2023-09-18T14:11:13;100409.00;;;29.30
23208;BMP180;11773;52.570;13.052;2023-09-18T14:13:43;100413.00;;;29.30
23208;BMP180;11773;52.570;13.052;2023-09-18T14:16:12;100419.00;;;29.30